sensor_id;sensor_type;location;lat;lon;timestamp;pressure;altitude;pressure_sealevel;temperature;humidity
48517;BME280;34310;51.904;4.256;2022-08-21T00:01:43;101773.63;;;23.93;54.86
48517;BME280;34310;51.904;4.256;2022-08-21T00:04:12;101773.63;;;23.93;54.77
48517;BME280;34310;51.904;4.256;2022-08-21T00:06:49;101771.00;;;23.93;54.94
48517;BME280;34310;51.904;4.256;2022-08-21T00:09:18;101765.72;;;23.93;54.67
48517;BME280;34310;51.904;4.256;2022-08-21T00:11:46;101771.84;;;23.92;54.84
48517;BME280;34310;51.904;4.256;2022-08-21T00:14:14;101763.94;;;23.92;54.84
48517;BME280;34310;51.904;4.256;2022-08-21T00:16:42;101774.44;;;23.91;54.76
48517;BME280;34310;51.904;4.256;2022-08-21T00:19:09;101771.75;;;23.89;55.09
48517;BME280;34310;51.904;4.256;2022-08-21T00:21:36;101758.56;;;23.89;55.17
48517;BME280;34310;51.904;4.256;2022-08-21T00:24:04;101758.56;;;23.89;55.22
48517;BME280;34310;51.904;4.256;2022-08-21T00:26:33;101767.28;;;23.87;55.11
48517;BME280;34310;51.904;4.256;2022-08-21T00:29:04;101754.94;;;23.86;55.20
48517;BME280;34310;51.904;4.256;2022-08-21T00:31:31;101758.47;;;23.86;55.00
48517;BME280;34310;51.904;4.256;2022-08-21T00:33:58;101759.31;;;23.85;55.34
48517;BME280;34310;51.904;4.256;2022-08-21T00:36:28;101761.06;;;23.85;55.42
48517;BME280;34310;51.904;4.256;2022-08-21T00:38:56;101765.44;;;23.84;55.34
48517;BME280;34310;51.904;4.256;2022-08-21T00:41:23;101762.81;;;23.84;55.21
48517;BME280;34310;51.904;4.256;2022-08-21T00:44:07;101763.66;;;23.83;55.22
48517;BME280;34310;51.904;4.256;2022-08-21T00:46:36;101756.59;;;23.82;55.28
48517;BME280;34310;51.904;4.256;2022-08-21T00:49:06;101757.44;;;23.81;55.63
48517;BME280;34310;51.904;4.256;2022-08-21T00:51:42;101753.88;;;23.79;55.51
48517;BME280;34310;51.904;4.256;2022-08-21T00:54:11;101758.28;;;23.80;55.36
48517;BME280;34310;51.904;4.256;2022-08-21T00:56:48;101748.59;;;23.79;55.50
48517;BME280;34310;51.904;4.256;2022-08-21T00:59:18;101752.97;;;23.78;55.58
48517;BME280;34310;51.904;4.256;2022-08-21T01:01:47;101748.53;;;23.77;55.63
48517;BME280;34310;51.904;4.256;2022-08-21T01:04:15;101747.66;;;23.77;55.90
48517;BME280;34310;51.904;4.256;2022-08-21T01:06:43;101740.59;;;23.76;55.83
48517;BME280;34310;51.904;4.256;2022-08-21T01:09:12;101743.19;;;23.74;55.78
48517;BME280;34310;51.904;4.256;2022-08-21T01:11:41;101736.13;;;23.73;55.60
48517;BME280;34310;51.904;4.256;2022-08-21T01:14:11;101735.28;;;23.74;55.75
48517;BME280;34310;51.904;4.256;2022-08-21T01:16:45;101736.06;;;23.72;55.91
48517;BME280;34310;51.904;4.256;2022-08-21T01:19:13;101738.72;;;23.72;56.04
48517;BME280;34310;51.904;4.256;2022-08-21T01:21:42;101735.19;;;23.71;55.81
48517;BME280;34310;51.904;4.256;2022-08-21T01:24:11;101730.72;;;23.70;55.99
48517;BME280;34310;51.904;4.256;2022-08-21T01:26:39;101737.72;;;23.70;56.01
48517;BME280;34310;51.904;4.256;2022-08-21T01:29:09;101741.25;;;23.70;56.03
48517;BME280;34310;51.904;4.256;2022-08-21T01:31:39;101737.72;;;23.70;56.04
48517;BME280;34310;51.904;4.256;2022-08-21T01:34:07;101739.47;;;23.69;56.16
48517;BME280;34310;51.904;4.256;2022-08-21T01:36:35;101737.69;;;23.68;56.23
48517;BME280;34310;51.904;4.256;2022-08-21T01:39:04;101731.50;;;23.68;56.03
48517;BME280;34310;51.904;4.256;2022-08-21T01:41:32;101740.28;;;23.67;56.29
48517;BME280;34310;51.904;4.256;2022-08-21T01:43:59;101734.16;;;23.68;56.41
48517;BME280;34310;51.904;4.256;2022-08-21T01:46:27;101735.00;;;23.67;56.45
48517;BME280;34310;51.904;4.256;2022-08-21T01:48:54;101733.16;;;23.64;56.56
48517;BME280;34310;51.904;4.256;2022-08-21T01:51:22;101727.03;;;23.65;56.46
48517;BME280;34310;51.904;4.256;2022-08-21T01:53:49;101731.41;;;23.65;56.17
48517;BME280;34310;51.904;4.256;2022-08-21T01:56:18;101728.78;;;23.65;56.50
48517;BME280;34310;51.904;4.256;2022-08-21T01:58:47;101722.56;;;23.63;56.42
48517;BME280;34310;51.904;4.256;2022-08-21T02:01:15;101722.56;;;23.63;56.51
48517;BME280;34310;51.904;4.256;2022-08-21T02:03:43;101722.56;;;23.63;56.32
48517;BME280;34310;51.904;4.256;2022-08-21T02:06:14;101725.16;;;23.61;56.63
48517;BME280;34310;51.904;4.256;2022-08-21T02:08:45;101704.91;;;23.60;56.57
48517;BME280;34310;51.904;4.256;2022-08-21T02:11:13;101714.63;;;23.61;56.64
48517;BME280;34310;51.904;4.256;2022-08-21T02:13:41;101709.28;;;23.60;56.39
48517;BME280;34310;51.904;4.256;2022-08-21T02:16:08;101709.28;;;23.60;56.66
48517;BME280;34310;51.904;4.256;2022-08-21T02:18:36;101712.78;;;23.59;56.75
48517;BME280;34310;51.904;4.256;2022-08-21T02:21:04;101711.88;;;23.58;56.76
48517;BME280;34310;51.904;4.256;2022-08-21T02:23:33;101711.00;;;23.58;56.82
48517;BME280;34310;51.904;4.256;2022-08-21T02:26:02;101712.69;;;23.56;56.93
48517;BME280;34310;51.904;4.256;2022-08-21T02:28:30;101716.22;;;23.56;56.83
48517;BME280;34310;51.904;4.256;2022-08-21T02:30:58;101716.22;;;23.56;56.65
48517;BME280;34310;51.904;4.256;2022-08-21T02:33:26;101726.75;;;23.56;56.99
48517;BME280;34310;51.904;4.256;2022-08-21T02:35:54;101711.72;;;23.54;57.10
48517;BME280;34310;51.904;4.256;2022-08-21T02:38:31;101710.81;;;23.53;57.08
48517;BME280;34310;51.904;4.256;2022-08-21T02:41:00;101722.25;;;23.54;56.99
48517;BME280;34310;51.904;4.256;2022-08-21T02:43:28;101709.91;;;23.53;56.91
48517;BME280;34310;51.904;4.256;2022-08-21T02:45:57;101709.91;;;23.53;56.91
48517;BME280;34310;51.904;4.256;2022-08-21T02:48:28;101706.34;;;23.51;57.05
48517;BME280;34310;51.904;4.256;2022-08-21T02:51:07;101713.41;;;23.52;57.14
48517;BME280;34310;51.904;4.256;2022-08-21T02:53:35;101714.25;;;23.51;57.12
48517;BME280;34310;51.904;4.256;2022-08-21T02:56:05;101710.72;;;23.50;57.03
48517;BME280;34310;51.904;4.256;2022-08-21T02:58:40;101708.94;;;23.49;57.04
48517;BME280;34310;51.904;4.256;2022-08-21T03:01:09;101706.28;;;23.49;57.04
48517;BME280;34310;51.904;4.256;2022-08-21T03:03:39;101701.81;;;23.46;57.27
48517;BME280;34310;51.904;4.256;2022-08-21T03:06:11;101706.25;;;23.47;57.04
48517;BME280;34310;51.904;4.256;2022-08-21T03:08:39;101699.19;;;23.46;57.09
48517;BME280;34310;51.904;4.256;2022-08-21T03:11:07;101695.63;;;23.44;57.23
48517;BME280;34310;51.904;4.256;2022-08-21T03:13:36;101691.25;;;23.45;57.20
48517;BME280;34310;51.904;4.256;2022-08-21T03:16:04;101694.78;;;23.45;57.38
48517;BME280;34310;51.904;4.256;2022-08-21T03:18:36;101694.78;;;23.45;57.50
48517;BME280;34310;51.904;4.256;2022-08-21T03:21:04;101687.72;;;23.44;57.38
48517;BME280;34310;51.904;4.256;2022-08-21T03:23:32;101689.41;;;23.42;57.54
48517;BME280;34310;51.904;4.256;2022-08-21T03:26:00;101686.75;;;23.42;57.30
48517;BME280;34310;51.904;4.256;2022-08-21T03:28:28;101683.22;;;23.42;57.58
48517;BME280;34310;51.904;4.256;2022-08-21T03:30:56;101684.03;;;23.41;57.22
48517;BME280;34310;51.904;4.256;2022-08-21T03:33:23;101683.22;;;23.42;57.44
48517;BME280;34310;51.904;4.256;2022-08-21T03:36:02;101676.09;;;23.39;57.66
48517;BME280;34310;51.904;4.256;2022-08-21T03:38:32;101674.34;;;23.40;57.56
48517;BME280;34310;51.904;4.256;2022-08-21T03:41:00;101664.66;;;23.39;57.55
48517;BME280;34310;51.904;4.256;2022-08-21T03:43:27;101679.56;;;23.38;57.60
48517;BME280;34310;51.904;4.256;2022-08-21T03:46:00;101679.53;;;23.37;57.70
48517;BME280;34310;51.904;4.256;2022-08-21T03:48:28;101675.16;;;23.37;57.57
48517;BME280;34310;51.904;4.256;2022-08-21T03:50:56;101666.34;;;23.37;57.45
48517;BME280;34310;51.904;4.256;2022-08-21T03:53:24;101661.97;;;23.37;57.67
48517;BME280;34310;51.904;4.256;2022-08-21T03:55:52;101667.19;;;23.36;57.56
48517;BME280;34310;51.904;4.256;2022-08-21T03:58:22;101669.78;;;23.34;57.78
48517;BME280;34310;51.904;4.256;2022-08-21T04:00:52;101660.13;;;23.35;57.94
48517;BME280;34310;51.904;4.256;2022-08-21T04:03:21;101671.53;;;23.34;57.72
48517;BME280;34310;51.904;4.256;2022-08-21T04:05:48;101670.63;;;23.33;57.65
48517;BME280;34310;51.904;4.256;2022-08-21T04:08:17;101670.63;;;23.33;58.08
48517;BME280;34310;51.904;4.256;2022-08-21T04:10:51;101671.47;;;23.32;58.00
48517;BME280;34310;51.904;4.256;2022-08-21T04:13:19;101674.06;;;23.31;57.80
48517;BME280;34310;51.904;4.256;2022-08-21T04:15:48;101670.59;;;23.32;57.87
48517;BME280;34310;51.904;4.256;2022-08-21T04:18:16;101674.06;;;23.31;57.91
48517;BME280;34310;51.904;4.256;2022-08-21T04:20:45;101681.09;;;23.30;57.95
48517;BME280;34310;51.904;4.256;2022-08-21T04:23:18;101675.81;;;23.30;57.84
48517;BME280;34310;51.904;4.256;2022-08-21T04:25:51;101681.03;;;23.29;58.01
48517;BME280;34310;51.904;4.256;2022-08-21T04:28:20;101689.78;;;23.28;58.14
48517;BME280;34310;51.904;4.256;2022-08-21T04:30:50;101686.25;;;23.27;57.85
48517;BME280;34310;51.904;4.256;2022-08-21T04:33:18;101689.78;;;23.28;58.06
48517;BME280;34310;51.904;4.256;2022-08-21T04:35:46;101696.78;;;23.27;58.28
48517;BME280;34310;51.904;4.256;2022-08-21T04:38:13;101701.16;;;23.27;58.19
48517;BME280;34310;51.904;4.256;2022-08-21T04:40:41;101700.28;;;23.26;58.14
48517;BME280;34310;51.904;4.256;2022-08-21T04:43:10;101709.91;;;23.26;58.35
48517;BME280;34310;51.904;4.256;2022-08-21T04:45:41;101708.19;;;23.26;58.34
48517;BME280;34310;51.904;4.256;2022-08-21T04:48:11;101705.50;;;23.25;58.22
48517;BME280;34310;51.904;4.256;2022-08-21T04:54:06;101715.13;;;23.24;58.53
48517;BME280;34310;51.904;4.256;2022-08-21T04:56:41;101714.25;;;23.24;58.47
48517;BME280;34310;51.904;4.256;2022-08-21T04:59:18;101712.47;;;23.23;58.67
48517;BME280;34310;51.904;4.256;2022-08-21T05:01:48;101721.25;;;23.23;58.40
48517;BME280;34310;51.904;4.256;2022-08-21T05:04:20;101715.13;;;23.24;58.50
48517;BME280;34310;51.904;4.256;2022-08-21T05:06:49;101711.63;;;23.24;58.57
48517;BME280;34310;51.904;4.256;2022-08-21T05:09:18;101712.47;;;23.23;58.26
48517;BME280;34310;51.904;4.256;2022-08-21T05:11:47;101715.13;;;23.24;58.31
48517;BME280;34310;51.904;4.256;2022-08-21T05:14:15;101706.28;;;23.22;58.39
48517;BME280;34310;51.904;4.256;2022-08-21T05:16:43;101716.84;;;23.22;58.42
48517;BME280;34310;51.904;4.256;2022-08-21T05:19:11;101708.09;;;23.23;58.42
48517;BME280;34310;51.904;4.256;2022-08-21T05:21:42;101713.31;;;23.22;58.55
48517;BME280;34310;51.904;4.256;2022-08-21T05:24:10;101715.97;;;23.23;58.68
48517;BME280;34310;51.904;4.256;2022-08-21T05:26:38;101715.03;;;23.21;58.61
48517;BME280;34310;51.904;4.256;2022-08-21T05:29:15;101711.50;;;23.21;58.46
48517;BME280;34310;51.904;4.256;2022-08-21T05:31:44;101708.03;;;23.22;58.42
48517;BME280;34310;51.904;4.256;2022-08-21T05:34:14;101714.16;;;23.21;58.49
48517;BME280;34310;51.904;4.256;2022-08-21T05:36:43;101706.28;;;23.22;58.69
48517;BME280;34310;51.904;4.256;2022-08-21T05:39:11;101702.75;;;23.22;58.47
48517;BME280;34310;51.904;4.256;2022-08-21T05:41:39;101704.50;;;23.21;58.43
48517;BME280;34310;51.904;4.256;2022-08-21T05:44:06;101703.66;;;23.22;58.64
48517;BME280;34310;51.904;4.256;2022-08-21T05:46:36;101707.19;;;23.23;58.41
48517;BME280;34310;51.904;4.256;2022-08-21T05:49:03;101700.13;;;23.22;58.55
48517;BME280;34310;51.904;4.256;2022-08-21T05:51:31;101708.94;;;23.22;58.55
48517;BME280;34310;51.904;4.256;2022-08-21T05:53:58;101706.28;;;23.22;58.63
48517;BME280;34310;51.904;4.256;2022-08-21T05:56:26;101708.94;;;23.22;58.50
48517;BME280;34310;51.904;4.256;2022-08-21T05:58:53;101712.41;;;23.21;58.86
48517;BME280;34310;51.904;4.256;2022-08-21T06:01:21;101716.78;;;23.21;58.72
48517;BME280;34310;51.904;4.256;2022-08-21T06:03:48;101714.16;;;23.21;58.70
48517;BME280;34310;51.904;4.256;2022-08-21T06:06:15;101715.88;;;23.20;58.64
48517;BME280;34310;51.904;4.256;2022-08-21T06:08:43;101722.94;;;23.21;58.56
48517;BME280;34310;51.904;4.256;2022-08-21T06:11:10;101724.69;;;23.21;58.82
48517;BME280;34310;51.904;4.256;2022-08-21T06:13:38;101721.22;;;23.22;58.50
48517;BME280;34310;51.904;4.256;2022-08-21T06:16:13;101721.25;;;23.23;58.83
48517;BME280;34310;51.904;4.256;2022-08-21T06:18:43;101715.13;;;23.24;58.09
48517;BME280;34310;51.904;4.256;2022-08-21T06:21:12;101716.03;;;23.25;58.24
48517;BME280;34310;51.904;4.256;2022-08-21T06:23:40;101716.97;;;23.27;58.27
48517;BME280;34310;51.904;4.256;2022-08-21T06:26:09;101709.97;;;23.27;58.31
48517;BME280;34310;51.904;4.256;2022-08-21T06:28:37;101714.41;;;23.28;58.06
48517;BME280;34310;51.904;4.256;2022-08-21T06:31:17;101712.66;;;23.29;58.18
48517;BME280;34310;51.904;4.256;2022-08-21T06:33:45;101717.97;;;23.30;58.04
48517;BME280;34310;51.904;4.256;2022-08-21T06:36:13;101712.69;;;23.30;58.02
48517;BME280;34310;51.904;4.256;2022-08-21T06:38:40;101714.50;;;23.31;58.17
48517;BME280;34310;51.904;4.256;2022-08-21T06:41:17;101711.00;;;23.32;57.66
48517;BME280;34310;51.904;4.256;2022-08-21T06:43:50;101718.97;;;23.34;58.02
48517;BME280;34310;51.904;4.256;2022-08-21T06:46:17;101712.78;;;23.33;57.66
48517;BME280;34310;51.904;4.256;2022-08-21T06:48:45;101717.22;;;23.34;57.87
48517;BME280;34310;51.904;4.256;2022-08-21T06:51:12;101717.22;;;23.34;57.51
48517;BME280;34310;51.904;4.256;2022-08-21T06:53:39;101721.66;;;23.35;57.51
48517;BME280;34310;51.904;4.256;2022-08-21T06:56:07;101715.53;;;23.36;57.38
48517;BME280;34310;51.904;4.256;2022-08-21T06:58:35;101711.19;;;23.38;57.32
48517;BME280;34310;51.904;4.256;2022-08-21T07:01:03;101715.63;;;23.39;57.49
48517;BME280;34310;51.904;4.256;2022-08-21T07:03:33;101711.25;;;23.40;57.55
48517;BME280;34310;51.904;4.256;2022-08-21T07:06:03;101717.41;;;23.40;57.69
48517;BME280;34310;51.904;4.256;2022-08-21T07:08:31;101721.84;;;23.41;57.65
48517;BME280;34310;51.904;4.256;2022-08-21T07:11:00;101715.75;;;23.42;57.76
48517;BME280;34310;51.904;4.256;2022-08-21T07:13:29;101723.72;;;23.44;57.68
48517;BME280;34310;51.904;4.256;2022-08-21T07:15:56;101720.22;;;23.45;57.37
48517;BME280;34310;51.904;4.256;2022-08-21T07:18:30;101719.38;;;23.46;57.47
48517;BME280;34310;51.904;4.256;2022-08-21T07:20:58;101720.28;;;23.46;57.11
48517;BME280;34310;51.904;4.256;2022-08-21T07:23:34;101715.91;;;23.47;57.54
48517;BME280;34310;51.904;4.256;2022-08-21T07:26:02;101720.31;;;23.48;57.39
48517;BME280;34310;51.904;4.256;2022-08-21T07:28:30;101724.75;;;23.49;57.28
48517;BME280;34310;51.904;4.256;2022-08-21T07:30:59;101720.38;;;23.49;57.40
48517;BME280;34310;51.904;4.256;2022-08-21T07:33:29;101712.47;;;23.49;57.18
48517;BME280;34310;51.904;4.256;2022-08-21T07:35:57;101715.16;;;23.51;56.98
48517;BME280;34310;51.904;4.256;2022-08-21T07:38:25;101715.16;;;23.51;57.05
48517;BME280;34310;51.904;4.256;2022-08-21T07:40:55;101720.47;;;23.53;56.93
48517;BME280;34310;51.904;4.256;2022-08-21T07:43:23;101721.31;;;23.52;57.04
48517;BME280;34310;51.904;4.256;2022-08-21T07:45:50;101728.38;;;23.53;57.23
48517;BME280;34310;51.904;4.256;2022-08-21T07:48:18;101724.88;;;23.54;57.29
48517;BME280;34310;51.904;4.256;2022-08-21T07:50:45;101723.16;;;23.54;57.04
48517;BME280;34310;51.904;4.256;2022-08-21T07:53:13;101723.16;;;23.54;57.04
48517;BME280;34310;51.904;4.256;2022-08-21T07:55:41;101722.31;;;23.55;57.35
48517;BME280;34310;51.904;4.256;2022-08-21T07:58:08;101718.78;;;23.55;57.29
48517;BME280;34310;51.904;4.256;2022-08-21T08:00:36;101718.84;;;23.56;57.15
48517;BME280;34310;51.904;4.256;2022-08-21T08:03:04;101716.25;;;23.58;57.33
48517;BME280;34310;51.904;4.256;2022-08-21T08:05:31;101718.91;;;23.58;56.91
48517;BME280;34310;51.904;4.256;2022-08-21T08:07:59;101718.00;;;23.57;56.77
48517;BME280;34310;51.904;4.256;2022-08-21T08:10:26;101717.09;;;23.57;56.56
48517;BME280;34310;51.904;4.256;2022-08-21T08:12:54;101713.63;;;23.58;56.48
48517;BME280;34310;51.904;4.256;2022-08-21T08:15:25;101709.25;;;23.58;56.68
48517;BME280;34310;51.904;4.256;2022-08-21T08:17:54;101717.16;;;23.58;56.37
48517;BME280;34310;51.904;4.256;2022-08-21T08:20:22;101715.47;;;23.60;56.62
48517;BME280;34310;51.904;4.256;2022-08-21T08:22:50;101722.47;;;23.60;56.39
48517;BME280;34310;51.904;4.256;2022-08-21T08:25:21;101705.81;;;23.61;56.50
48517;BME280;34310;51.904;4.256;2022-08-21T08:27:49;101711.09;;;23.61;56.66
48517;BME280;34310;51.904;4.256;2022-08-21T08:30:18;101719.03;;;23.62;56.23
48517;BME280;34310;51.904;4.256;2022-08-21T08:32:47;101725.16;;;23.61;56.39
48517;BME280;34310;51.904;4.256;2022-08-21T08:35:15;101710.28;;;23.63;56.49
48517;BME280;34310;51.904;4.256;2022-08-21T08:37:43;101705.06;;;23.65;56.06
48517;BME280;34310;51.904;4.256;2022-08-21T08:43:00;101713.94;;;23.68;56.10
48517;BME280;34310;51.904;4.256;2022-08-21T08:45:31;101705.16;;;23.68;56.44
48517;BME280;34310;51.904;4.256;2022-08-21T08:48:05;101705.09;;;23.66;56.45
48517;BME280;34310;51.904;4.256;2022-08-21T08:50:57;101698.88;;;23.64;56.63
48517;BME280;34310;51.904;4.256;2022-08-21T08:53:43;101702.38;;;23.63;56.48
48517;BME280;34310;51.904;4.256;2022-08-21T08:56:12;101697.91;;;23.61;56.19
48517;BME280;34310;51.904;4.256;2022-08-21T08:58:42;101700.53;;;23.61;56.39
48517;BME280;34310;51.904;4.256;2022-08-21T09:01:17;101697.06;;;23.62;56.33
48517;BME280;34310;51.904;4.256;2022-08-21T09:03:47;101704.13;;;23.63;56.36
48517;BME280;34310;51.904;4.256;2022-08-21T09:06:27;101693.63;;;23.64;55.90
48517;BME280;34310;51.904;4.256;2022-08-21T09:15:19;101704.06;;;23.61;56.23
48517;BME280;34310;51.904;4.256;2022-08-21T09:17:40;101706.75;;;23.63;55.98
48517;BME280;34310;51.904;4.256;2022-08-21T09:20:37;101709.47;;;23.66;55.72
48517;BME280;34310;51.904;4.256;2022-08-21T09:25:58;101712.22;;;23.69;56.01
48517;BME280;34310;51.904;4.256;2022-08-21T09:28:36;101717.47;;;23.69;55.74
48517;BME280;34310;51.904;4.256;2022-08-21T09:31:07;101717.53;;;23.70;55.58
48517;BME280;34310;51.904;4.256;2022-08-21T09:33:35;101718.47;;;23.71;55.79
48517;BME280;34310;51.904;4.256;2022-08-21T09:36:04;101717.59;;;23.72;55.58
48517;BME280;34310;51.904;4.256;2022-08-21T09:38:34;101716.75;;;23.73;55.08
48517;BME280;34310;51.904;4.256;2022-08-21T09:41:09;101709.75;;;23.73;55.13
48517;BME280;34310;51.904;4.256;2022-08-21T09:43:38;101711.53;;;23.74;55.32
48517;BME280;34310;51.904;4.256;2022-08-21T09:46:10;101715.13;;;23.76;55.61
48517;BME280;34310;51.904;4.256;2022-08-21T09:48:49;101710.72;;;23.77;55.73
48517;BME280;34310;51.904;4.256;2022-08-21T09:51:40;101724.00;;;23.80;55.61
48517;BME280;34310;51.904;4.256;2022-08-21T09:56:37;101721.41;;;23.82;53.65
48517;BME280;34310;51.904;4.256;2022-08-21T09:59:33;101719.72;;;23.84;52.72
48517;BME280;34310;51.904;4.256;2022-08-21T10:02:29;101705.69;;;23.85;52.37
48517;BME280;34310;51.904;4.256;2022-08-21T10:05:22;101703.09;;;23.86;52.46
48517;BME280;34310;51.904;4.256;2022-08-21T10:07:49;101699.59;;;23.87;52.14
48517;BME280;34310;51.904;4.256;2022-08-21T10:10:23;101704.03;;;23.88;51.87
48517;BME280;34310;51.904;4.256;2022-08-21T10:20:09;101699.81;;;23.95;51.20
48517;BME280;34310;51.904;4.256;2022-08-21T10:24:52;101693.66;;;23.94;51.89
48517;BME280;34310;51.904;4.256;2022-08-21T10:47:18;101699.28;;;24.05;52.16
48517;BME280;34310;51.904;4.256;2022-08-21T11:04:24;101702.25;;;24.17;49.42
48517;BME280;34310;51.904;4.256;2022-08-21T11:09:48;101715.63;;;24.23;48.28
48517;BME280;34310;51.904;4.256;2022-08-21T11:12:40;101719.16;;;24.24;48.52
48517;BME280;34310;51.904;4.256;2022-08-21T11:18:12;101710.38;;;24.25;47.88
48517;BME280;34310;51.904;4.256;2022-08-21T11:21:04;101704.41;;;24.29;47.90
48517;BME280;34310;51.904;4.256;2022-08-21T11:26:21;101711.69;;;24.37;47.28
48517;BME280;34310;51.904;4.256;2022-08-21T11:28:55;101726.53;;;24.34;46.73
48517;BME280;34310;51.904;4.256;2022-08-21T11:31:37;101722.25;;;24.37;47.21
48517;BME280;34310;51.904;4.256;2022-08-21T11:45:08;101722.91;;;24.60;46.62
48517;BME280;34310;51.904;4.256;2022-08-21T11:48:59;101723.88;;;24.64;46.78
48517;BME280;34310;51.904;4.256;2022-08-21T11:50:51;101730.22;;;24.70;46.70
48517;BME280;34310;51.904;4.256;2022-08-21T11:53:33;101732.16;;;24.78;46.62
48517;BME280;34310;51.904;4.256;2022-08-21T11:56:27;101725.25;;;24.83;46.35
48517;BME280;34310;51.904;4.256;2022-08-21T11:59:04;101732.47;;;24.88;46.00
48517;BME280;34310;51.904;4.256;2022-08-21T12:01:39;101725.25;;;24.83;45.98
48517;BME280;34310;51.904;4.256;2022-08-21T12:04:34;101718.25;;;24.85;46.15
48517;BME280;34310;51.904;4.256;2022-08-21T12:07:29;101721.00;;;24.88;45.95
48517;BME280;34310;51.904;4.256;2022-08-21T12:09:59;101727.97;;;24.86;45.99
48517;BME280;34310;51.904;4.256;2022-08-21T12:18:05;101734.13;;;24.86;46.50
48517;BME280;34310;51.904;4.256;2022-08-21T12:20:40;101735.84;;;24.84;46.40
48517;BME280;34310;51.904;4.256;2022-08-21T12:23:44;101741.13;;;24.84;46.20
48517;BME280;34310;51.904;4.256;2022-08-21T12:26:26;101745.53;;;24.84;46.59
48517;BME280;34310;51.904;4.256;2022-08-21T12:29:12;101743.94;;;24.89;46.16
48517;BME280;34310;51.904;4.256;2022-08-21T12:35:06;101753.75;;;24.94;46.78
48517;BME280;34310;51.904;4.256;2022-08-21T12:37:47;101751.06;;;24.93;46.32
48517;BME280;34310;51.904;4.256;2022-08-21T12:40:41;101747.72;;;24.98;46.42
48517;BME280;34310;51.904;4.256;2022-08-21T12:43:27;101746.91;;;25.01;46.26
48517;BME280;34310;51.904;4.256;2022-08-21T12:45:56;101747.09;;;25.09;46.27
48517;BME280;34310;51.904;4.256;2022-08-21T12:48:54;101739.31;;;25.15;45.79
48517;BME280;34310;51.904;4.256;2022-08-21T12:51:31;101742.03;;;25.16;45.91
48517;BME280;34310;51.904;4.256;2022-08-21T12:54:00;101738.63;;;25.20;45.99
48517;BME280;34310;51.904;4.256;2022-08-21T12:56:30;101744.84;;;25.22;45.76
48517;BME280;34310;51.904;4.256;2022-08-21T12:59:05;101751.06;;;25.24;45.91
48517;BME280;34310;51.904;4.256;2022-08-21T13:01:47;101759.81;;;25.22;45.99
48517;BME280;34310;51.904;4.256;2022-08-21T13:04:22;101751.91;;;25.23;45.67
48517;BME280;34310;51.904;4.256;2022-08-21T13:06:55;101747.63;;;25.28;45.41
48517;BME280;34310;51.904;4.256;2022-08-21T13:09:28;101756.56;;;25.33;45.33
48517;BME280;34310;51.904;4.256;2022-08-21T13:11:57;101759.31;;;25.38;45.30
48517;BME280;34310;51.904;4.256;2022-08-21T13:14:42;101747.88;;;25.39;44.75
48517;BME280;34310;51.904;4.256;2022-08-21T13:17:16;101749.56;;;25.36;45.00
48517;BME280;34310;51.904;4.256;2022-08-21T13:20:00;101756.59;;;25.35;45.02
48517;BME280;34310;51.904;4.256;2022-08-21T13:22:30;101753.03;;;25.33;45.05
48517;BME280;34310;51.904;4.256;2022-08-21T13:25:01;101753.84;;;25.30;45.21
48517;BME280;34310;51.904;4.256;2022-08-21T13:27:33;101744.94;;;25.27;45.40
48517;BME280;34310;51.904;4.256;2022-08-21T13:30:12;101746.63;;;25.23;45.45
48517;BME280;34310;51.904;4.256;2022-08-21T13:32:45;101743.94;;;25.22;45.44
48517;BME280;34310;51.904;4.256;2022-08-21T13:35:17;101740.34;;;25.18;45.67
48517;BME280;34310;51.904;4.256;2022-08-21T13:37:47;101743.00;;;25.20;45.61
48517;BME280;34310;51.904;4.256;2022-08-21T13:40:39;101745.66;;;25.20;45.47
48517;BME280;34310;51.904;4.256;2022-08-21T13:43:14;101755.28;;;25.18;45.27
48517;BME280;34310;51.904;4.256;2022-08-21T13:45:51;101746.47;;;25.17;45.74
48517;BME280;34310;51.904;4.256;2022-08-21T13:48:25;101743.91;;;25.20;45.33
48517;BME280;34310;51.904;4.256;2022-08-21T13:50:53;101745.81;;;25.26;45.43
48517;BME280;34310;51.904;4.256;2022-08-21T13:53:27;101745.84;;;25.27;45.53
48517;BME280;34310;51.904;4.256;2022-08-21T13:55:56;101739.69;;;25.28;45.46
48517;BME280;34310;51.904;4.256;2022-08-21T13:58:43;101746.69;;;25.26;45.56
48517;BME280;34310;51.904;4.256;2022-08-21T14:01:30;101740.53;;;25.26;45.83
48517;BME280;34310;51.904;4.256;2022-08-21T14:04:05;101747.56;;;25.25;45.74
48517;BME280;34310;51.904;4.256;2022-08-21T14:06:36;101751.06;;;25.24;45.93
48517;BME280;34310;51.904;4.256;2022-08-21T14:11:48;101753.69;;;25.24;46.23
48517;BME280;34310;51.904;4.256;2022-08-21T14:14:26;101754.59;;;25.25;45.91
48517;BME280;34310;51.904;4.256;2022-08-21T14:16:59;101752.81;;;25.24;46.41
48517;BME280;34310;51.904;4.256;2022-08-21T14:19:40;101746.63;;;25.23;46.49
48517;BME280;34310;51.904;4.256;2022-08-21T14:22:46;101747.47;;;25.22;46.82
48517;BME280;34310;51.904;4.256;2022-08-21T14:25:15;101739.44;;;25.18;46.76
48517;BME280;34310;51.904;4.256;2022-08-21T14:30:45;101741.06;;;25.14;46.58
48517;BME280;34310;51.904;4.256;2022-08-21T14:33:30;101744.63;;;25.15;46.78
48517;BME280;34310;51.904;4.256;2022-08-21T14:35:59;101740.22;;;25.15;46.75
48517;BME280;34310;51.904;4.256;2022-08-21T14:38:28;101739.41;;;25.16;47.06
48517;BME280;34310;51.904;4.256;2022-08-21T14:41:03;101735.00;;;25.17;47.14
48517;BME280;34310;51.904;4.256;2022-08-21T14:43:32;101735.91;;;25.17;47.54
48517;BME280;34310;51.904;4.256;2022-08-21T14:46:00;101735.09;;;25.20;47.17
48517;BME280;34310;51.904;4.256;2022-08-21T14:48:28;101735.22;;;25.26;47.26
48517;BME280;34310;51.904;4.256;2022-08-21T14:50:55;101730.88;;;25.28;47.53